createdAt,value
2019-01-11T00:00:06.165Z,12.47
2019-01-11T00:02:36.857Z,12.97
2019-01-11T00:05:07.609Z,13.23
2019-01-11T00:07:39.785Z,12.83
2019-01-11T00:10:09.644Z,13.40
2019-01-11T00:12:39.585Z,14.17
2019-01-11T00:15:09.793Z,13.40
2019-01-11T00:17:39.936Z,13.63
2019-01-11T00:20:10.245Z,12.43
2019-01-11T00:22:40.270Z,13.13
2019-01-11T00:25:10.277Z,12.80
2019-01-11T00:27:40.093Z,12.87
2019-01-11T00:30:10.832Z,13.43
2019-01-11T00:32:42.673Z,13.13
2019-01-11T00:35:12.615Z,13.50
2019-01-11T00:37:42.514Z,13.53
2019-01-11T00:40:12.484Z,12.80
2019-01-11T00:42:44.113Z,14.50
2019-01-11T00:45:14.929Z,13.87
2019-01-11T00:47:45.461Z,14.60
2019-01-11T00:50:15.530Z,13.77
2019-01-11T00:52:45.787Z,14.60
2019-01-11T00:55:17.421Z,14.87
2019-01-11T00:57:47.205Z,15.33
2019-01-11T01:00:19.457Z,14.03
2019-01-11T01:02:49.834Z,13.47
2019-01-11T01:05:20.966Z,13.43
2019-01-11T01:07:51.489Z,12.33
2019-01-11T01:10:22.834Z,14.50
2019-01-11T01:12:53.321Z,12.47
2019-01-11T01:15:23.588Z,12.47
2019-01-11T01:17:54.101Z,13.03
2019-01-11T01:20:24.815Z,13.07
2019-01-11T01:22:55.145Z,11.93
2019-01-11T01:25:25.329Z,13.27
2019-01-11T01:27:56.407Z,13.00
2019-01-11T01:30:26.841Z,13.67
2019-01-11T01:32:57.082Z,13.30
2019-01-11T01:35:27.145Z,13.23
2019-01-11T01:37:58.663Z,13.37
2019-01-11T01:40:28.888Z,13.80
2019-01-11T01:42:59.249Z,14.37
2019-01-11T01:45:29.409Z,13.37
2019-01-11T01:48:01.763Z,13.67
2019-01-11T01:50:31.849Z,13.03
2019-01-11T01:53:02.482Z,13.83
2019-01-11T01:55:32.380Z,13.10
2019-01-11T01:58:03.529Z,13.80
2019-01-11T02:00:33.821Z,14.30
2019-01-11T02:03:03.856Z,14.13
2019-01-11T02:05:33.897Z,14.07
2019-01-11T02:08:04.097Z,13.80
2019-01-11T02:10:34.597Z,13.37
2019-01-11T02:13:04.448Z,14.60
2019-01-11T02:15:34.491Z,13.33
2019-01-11T02:18:04.365Z,12.93
2019-01-11T02:20:34.828Z,12.50
2019-01-11T02:23:04.981Z,11.60
2019-01-11T02:25:35.097Z,13.33
2019-01-11T02:28:05.120Z,12.90
2019-01-11T02:30:34.929Z,12.43
2019-01-11T02:33:04.949Z,11.00
2019-01-11T02:35:35.195Z,10.73
2019-01-11T02:38:05.553Z,11.10
2019-01-11T02:40:35.511Z,11.03
2019-01-11T02:43:06.149Z,10.60
2019-01-11T02:45:36.946Z,9.73
2019-01-11T02:48:06.963Z,9.60
2019-01-11T02:50:36.937Z,10.57
2019-01-11T02:53:06.942Z,10.90
2019-01-11T02:55:36.727Z,11.37
2019-01-11T02:58:06.689Z,9.33
2019-01-11T03:00:36.885Z,9.93
2019-01-11T03:03:06.794Z,9.70
2019-01-11T03:05:37.570Z,10.13
2019-01-11T03:08:07.601Z,10.90
2019-01-11T03:10:39.267Z,10.17
2019-01-11T03:13:10.352Z,9.20
2019-01-11T03:15:40.784Z,9.90
2019-01-11T03:18:10.723Z,8.67
2019-01-11T03:20:41.593Z,9.53
2019-01-11T03:23:11.876Z,8.77
2019-01-11T03:25:41.807Z,8.33
2019-01-11T03:28:12.215Z,9.10
2019-01-11T03:30:43.391Z,8.87
2019-01-11T03:33:13.586Z,8.63
2019-01-11T03:35:43.578Z,8.33
2019-01-11T03:38:13.550Z,9.93
2019-01-11T03:40:46.573Z,8.37
2019-01-11T03:43:16.466Z,8.57
2019-01-11T03:45:46.306Z,8.40
2019-01-11T03:48:16.302Z,8.90
2019-01-11T03:50:46.327Z,9.20
2019-01-11T03:53:16.328Z,9.73
2019-01-11T03:55:48.049Z,9.63
2019-01-11T03:58:20.440Z,9.07
2019-01-11T04:00:50.447Z,9.03
2019-01-11T04:03:21.253Z,10.57
2019-01-11T04:05:54.285Z,9.73
2019-01-11T04:08:24.237Z,9.63
2019-01-11T04:10:54.140Z,11.00
2019-01-11T04:13:30.303Z,11.13
2019-01-11T04:15:56.654Z,12.33
2019-01-11T04:18:33.726Z,13.00
2019-01-11T04:21:04.259Z,12.07
2019-01-11T04:23:34.373Z,12.03
2019-01-11T04:26:04.663Z,11.93
2019-01-11T04:28:34.363Z,13.50
2019-01-11T04:31:08.636Z,11.47
2019-01-11T04:33:39.069Z,12.37
2019-01-11T04:36:09.147Z,11.80
2019-01-11T04:38:39.238Z,12.60
2019-01-11T04:41:09.269Z,12.20
2019-01-11T04:43:39.405Z,13.20
2019-01-11T04:46:09.829Z,12.40
2019-01-11T04:48:39.794Z,13.13
2019-01-11T04:51:10.288Z,14.27
2019-01-11T04:53:40.150Z,14.77
2019-01-11T04:56:10.255Z,13.27
2019-01-11T04:58:40.388Z,15.13
2019-01-11T05:01:10.272Z,13.87
2019-01-11T05:03:41.720Z,14.90
2019-01-11T05:06:11.743Z,13.77
2019-01-11T05:08:41.792Z,14.47
2019-01-11T05:11:11.879Z,14.03
2019-01-11T05:13:44.232Z,13.83
2019-01-11T05:16:15.570Z,14.37
2019-01-11T05:18:45.687Z,14.47
2019-01-11T05:21:16.266Z,15.53
2019-01-11T05:23:47.796Z,15.30
2019-01-11T05:26:17.801Z,15.60
2019-01-11T05:28:49.721Z,14.53
2019-01-11T05:31:19.633Z,16.03
2019-01-11T05:33:49.993Z,15.97
2019-01-11T05:36:20.229Z,15.80
2019-01-11T05:38:50.159Z,16.07
2019-01-11T05:41:21.705Z,15.13
2019-01-11T05:43:51.931Z,16.70
2019-01-11T05:46:22.689Z,14.90
2019-01-11T05:48:52.826Z,15.80
2019-01-11T05:51:22.981Z,17.27
2019-01-11T05:53:53.270Z,16.13
2019-01-11T05:56:23.249Z,16.87
2019-01-11T05:59:23.047Z,16.03
2019-01-11T06:01:53.692Z,16.27
2019-01-11T06:04:41.641Z,17.33
2019-01-11T06:07:33.654Z,15.63
2019-01-11T06:10:06.392Z,14.37
2019-01-11T06:12:36.784Z,15.47
2019-01-11T06:15:07.685Z,15.57
2019-01-11T06:17:37.886Z,16.43
2019-01-11T06:20:11.544Z,15.13
2019-01-11T06:22:41.789Z,16.50
2019-01-11T06:25:12.420Z,16.17
2019-01-11T06:27:42.620Z,16.73
2019-01-11T06:30:14.256Z,16.67
2019-01-11T06:32:44.782Z,15.37
2019-01-11T06:35:15.272Z,17.00
2019-01-11T06:37:45.506Z,17.23
2019-01-11T06:40:15.919Z,17.13
2019-01-11T06:42:46.126Z,16.73
2019-01-11T06:45:16.214Z,17.77
2019-01-11T06:47:46.546Z,18.07
2019-01-11T06:50:16.627Z,18.43
2019-01-11T06:52:47.038Z,17.63
2019-01-11T06:55:17.016Z,18.00
2019-01-11T06:57:48.325Z,17.10
2019-01-11T07:00:18.485Z,17.57
2019-01-11T07:02:49.008Z,17.67
2019-01-11T07:05:19.402Z,17.37
2019-01-11T07:07:50.148Z,18.37
2019-01-11T07:10:20.953Z,18.43
2019-01-11T07:12:51.278Z,18.10
2019-01-11T07:15:21.896Z,19.60
2019-01-11T07:17:52.201Z,17.77
2019-01-11T07:20:22.557Z,18.83
2019-01-11T07:22:52.827Z,20.33
2019-01-11T07:25:22.933Z,19.53
2019-01-11T07:28:01.156Z,17.93
2019-01-11T07:30:41.498Z,19.07
2019-01-11T07:33:15.614Z,19.37
2019-01-11T07:35:52.976Z,18.43
2019-01-11T07:38:23.202Z,17.63
2019-01-11T07:40:53.455Z,18.43
2019-01-11T07:43:23.583Z,17.90
2019-01-11T07:45:55.268Z,17.87
2019-01-11T07:48:25.585Z,17.40
2019-01-11T07:51:07.629Z,19.00
2019-01-11T07:53:37.850Z,18.13
2019-01-11T07:56:08.121Z,17.70
2019-01-11T07:58:38.347Z,18.17
2019-01-11T08:01:08.680Z,18.07
2019-01-11T08:03:38.848Z,18.50
2019-01-11T08:06:09.166Z,17.03
2019-01-11T08:08:39.006Z,17.57
2019-01-11T08:11:09.287Z,17.80
2019-01-11T08:13:40.339Z,19.00
2019-01-11T08:16:10.592Z,17.57
2019-01-11T08:18:41.537Z,23.83
2019-01-11T08:21:11.862Z,19.43
2019-01-11T08:23:42.733Z,18.87
2019-01-11T08:26:12.529Z,17.77
2019-01-11T08:28:42.443Z,18.63
2019-01-11T08:31:12.316Z,19.03
2019-01-11T08:33:42.286Z,19.17
2019-01-11T08:36:12.431Z,19.67
2019-01-11T08:38:42.214Z,18.87
2019-01-11T08:41:11.940Z,18.07
2019-01-11T08:43:41.776Z,21.00
2019-01-11T08:46:11.626Z,18.97
2019-01-11T08:48:41.746Z,19.53
2019-01-11T08:51:13.473Z,19.77
2019-01-11T08:53:43.707Z,19.63
2019-01-11T08:56:15.360Z,19.70
2019-01-11T08:58:46.292Z,20.20
2019-01-11T09:01:16.222Z,18.93
2019-01-11T09:03:46.684Z,18.80
2019-01-11T09:06:16.679Z,20.77
2019-01-11T09:08:47.100Z,18.83
2019-01-11T09:11:16.957Z,19.50
2019-01-11T09:13:55.723Z,20.40
2019-01-11T09:16:25.648Z,19.13
2019-01-11T09:18:57.764Z,19.33
2019-01-11T09:21:27.677Z,19.47
2019-01-11T09:24:08.409Z,18.80
2019-01-11T09:26:38.442Z,19.73
2019-01-11T09:29:08.318Z,19.23
2019-01-11T09:31:38.215Z,19.23
2019-01-11T09:34:07.915Z,19.50
2019-01-11T09:36:37.806Z,20.47
2019-01-11T09:39:09.534Z,20.77
2019-01-11T09:41:42.276Z,20.03
2019-01-11T09:44:12.297Z,18.97
2019-01-11T09:46:48.817Z,19.73
2019-01-11T09:49:18.541Z,19.93
2019-01-11T09:51:48.431Z,20.60
2019-01-11T09:54:30.512Z,18.07
2019-01-11T09:57:12.217Z,18.50
2019-01-11T09:59:42.125Z,19.10
2019-01-11T10:02:35.743Z,19.10
2019-01-11T10:05:07.900Z,18.87
2019-01-11T10:07:37.668Z,18.43
2019-01-11T10:10:10.304Z,18.83
2019-01-11T10:12:40.196Z,18.83
2019-01-11T10:15:11.064Z,19.03
2019-01-11T10:17:40.962Z,18.27
2019-01-11T10:20:11.943Z,18.43
2019-01-11T10:22:41.889Z,18.93
2019-01-11T10:25:12.092Z,18.93
2019-01-11T10:27:41.959Z,18.00
2019-01-11T10:30:14.708Z,19.10
2019-01-11T10:32:45.082Z,19.00
2019-01-11T10:35:15.198Z,19.07
2019-01-11T10:37:45.169Z,17.87
2019-01-11T10:40:16.749Z,20.27
2019-01-11T10:42:47.379Z,20.00
2019-01-11T10:45:20.199Z,20.83
2019-01-11T10:47:52.321Z,19.00
2019-01-11T10:50:22.700Z,19.27
2019-01-11T10:52:52.527Z,20.40
2019-01-11T10:55:22.585Z,19.13
2019-01-11T10:57:52.368Z,19.17
2019-01-11T11:00:26.926Z,17.90
2019-01-11T11:02:57.991Z,15.23
2019-01-11T11:05:28.674Z,15.50
2019-01-11T11:07:58.596Z,15.77
2019-01-11T11:10:28.429Z,15.83
2019-01-11T11:12:58.519Z,14.60
2019-01-11T11:15:28.444Z,15.27
2019-01-11T11:17:58.376Z,18.53
2019-01-11T11:20:31.709Z,18.30
2019-01-11T11:23:01.624Z,16.23
2019-01-11T11:25:31.528Z,17.20
2019-01-11T11:28:01.454Z,12.97
2019-01-11T11:30:31.412Z,14.50
2019-01-11T11:33:03.375Z,11.83
2019-01-11T11:35:34.858Z,11.50
2019-01-11T11:38:04.751Z,12.70
2019-01-11T11:40:34.871Z,13.10
2019-01-11T11:43:06.324Z,13.43
2019-01-11T11:45:36.172Z,13.43
2019-01-11T11:48:06.104Z,13.60
2019-01-11T11:50:45.227Z,13.97
2019-01-11T11:53:26.199Z,15.13
2019-01-11T11:56:05.621Z,14.67
2019-01-11T11:58:35.487Z,15.00
2019-01-11T12:01:07.246Z,13.83
2019-01-11T12:03:37.226Z,16.40
2019-01-11T12:06:07.359Z,15.80
2019-01-11T12:08:37.213Z,16.77
2019-01-11T12:11:07.161Z,16.70
2019-01-11T12:13:37.249Z,16.37
2019-01-11T12:16:07.189Z,17.03
2019-01-11T12:18:37.211Z,16.73
2019-01-11T12:21:06.981Z,17.23
2019-01-11T12:23:36.885Z,18.30
2019-01-11T12:26:06.943Z,16.53
2019-01-11T12:28:36.751Z,17.73
2019-01-11T12:31:06.711Z,17.33
2019-01-11T12:33:36.788Z,17.07
2019-01-11T12:36:06.552Z,17.47
2019-01-11T12:38:36.561Z,17.73
2019-01-11T12:41:09.010Z,16.83
2019-01-11T12:43:38.986Z,17.97
2019-01-11T12:46:08.857Z,18.30
2019-01-11T12:48:38.747Z,17.63
2019-01-11T12:51:08.560Z,18.70
2019-01-11T12:53:38.407Z,18.37
2019-01-11T12:56:08.145Z,17.97
2019-01-11T12:58:38.111Z,17.87
2019-01-11T13:01:08.102Z,18.10
2019-01-11T13:03:37.928Z,16.73
2019-01-11T13:06:08.030Z,18.20
2019-01-11T13:08:37.971Z,17.87
2019-01-11T13:11:07.770Z,19.30
2019-01-11T13:13:37.641Z,16.83
2019-01-11T13:16:07.496Z,18.73
2019-01-11T13:18:37.430Z,19.20
2019-01-11T13:21:07.971Z,18.20
2019-01-11T13:23:38.209Z,18.10
2019-01-11T13:26:08.247Z,18.23
2019-01-11T13:28:38.277Z,18.43
2019-01-11T13:31:08.191Z,17.10
2019-01-11T13:33:38.110Z,16.90
2019-01-11T13:36:13.292Z,16.40
2019-01-11T13:38:43.296Z,17.27
2019-01-11T13:41:15.338Z,17.33
2019-01-11T13:43:45.364Z,17.27
2019-01-11T13:46:15.400Z,14.87
2019-01-11T13:48:45.151Z,17.07
2019-01-11T13:51:15.330Z,16.63
2019-01-11T13:53:45.311Z,17.00
2019-01-11T13:56:17.481Z,16.40
2019-01-11T13:58:47.497Z,17.23
2019-01-11T14:01:17.424Z,16.23
2019-01-11T14:03:47.217Z,17.67
2019-01-11T14:06:17.013Z,16.33
2019-01-11T14:08:46.880Z,16.00
2019-01-11T14:11:16.966Z,16.90
2019-01-11T14:13:48.296Z,16.80
2019-01-11T14:16:18.330Z,16.23
2019-01-11T14:18:48.700Z,18.23
2019-01-11T14:21:18.547Z,16.67
2019-01-11T14:23:48.308Z,16.23
2019-01-11T14:26:18.186Z,16.27
2019-01-11T14:28:48.062Z,17.03
2019-01-11T14:31:18.003Z,15.43
2019-01-11T14:33:47.859Z,14.83
2019-01-11T14:36:19.982Z,16.00
2019-01-11T14:38:49.932Z,16.27
2019-01-11T14:41:20.302Z,15.10
2019-01-11T14:43:50.725Z,13.83
2019-01-11T14:46:20.512Z,14.07
2019-01-11T14:48:50.260Z,15.23
2019-01-11T14:51:21.612Z,13.67
2019-01-11T14:53:51.663Z,15.77
2019-01-11T14:56:21.623Z,15.77
2019-01-11T14:58:51.389Z,16.63
2019-01-11T15:01:21.299Z,13.87
2019-01-11T15:03:52.412Z,13.30
2019-01-11T15:06:22.373Z,14.73
2019-01-11T15:08:52.137Z,16.47
2019-01-11T15:11:22.188Z,16.17
2019-01-11T15:13:52.016Z,15.60
2019-01-11T15:16:22.002Z,15.93
2019-01-11T15:18:51.978Z,16.20
2019-01-11T15:21:21.740Z,17.43
2019-01-11T15:23:51.771Z,16.63
2019-01-11T15:26:21.786Z,17.17
2019-01-11T15:28:51.712Z,17.20
2019-01-11T15:31:21.816Z,17.57
2019-01-11T15:33:51.845Z,17.33
2019-01-11T15:36:23.162Z,17.40
2019-01-11T15:38:53.194Z,18.00
2019-01-11T15:41:23.054Z,18.27
2019-01-11T15:43:52.862Z,17.77
2019-01-11T15:46:22.868Z,18.20
2019-01-11T15:48:52.818Z,18.13
2019-01-11T15:51:26.823Z,18.93
2019-01-11T15:53:57.406Z,19.40
2019-01-11T15:56:28.365Z,18.47
2019-01-11T15:58:58.813Z,19.87
2019-01-11T16:01:28.903Z,19.23
2019-01-11T16:04:00.341Z,18.67
2019-01-11T16:06:34.609Z,19.73
2019-01-11T16:10:01.766Z,18.30
2019-01-11T16:12:49.437Z,19.63
2019-01-11T16:15:48.488Z,19.70
2019-01-11T16:18:25.053Z,20.87
2019-01-11T16:20:55.329Z,18.77
2019-01-11T16:23:25.253Z,20.50
2019-01-11T16:25:55.295Z,20.57
2019-01-11T16:28:25.086Z,19.40
2019-01-11T16:30:55.120Z,20.63
2019-01-11T16:33:25.256Z,20.70
2019-01-11T16:35:55.236Z,21.40
2019-01-11T16:38:25.376Z,20.33
2019-01-11T16:40:55.726Z,20.77
2019-01-11T16:43:25.922Z,21.13
2019-01-11T16:45:56.136Z,19.27
2019-01-11T16:48:25.996Z,21.03
2019-01-11T16:50:55.928Z,20.77
2019-01-11T16:53:25.883Z,19.87
2019-01-11T16:55:55.916Z,20.93
2019-01-11T16:58:25.808Z,22.93
2019-01-11T17:00:56.101Z,20.90
2019-01-11T17:03:26.499Z,20.43
2019-01-11T17:05:56.503Z,20.37
2019-01-11T17:08:26.348Z,20.30
2019-01-11T17:10:57.174Z,21.03
2019-01-11T17:13:27.315Z,21.73
2019-01-11T17:15:57.524Z,23.07
2019-01-11T17:18:27.623Z,20.67
2019-01-11T17:20:57.698Z,22.87
2019-01-11T17:23:27.740Z,21.93
2019-01-11T17:25:57.928Z,22.63
2019-01-11T17:28:27.804Z,23.10
2019-01-11T17:30:57.774Z,23.70
2019-01-11T17:33:28.009Z,21.77
2019-01-11T17:35:58.082Z,22.70
2019-01-11T17:38:28.140Z,22.27
2019-01-11T17:40:58.648Z,21.50
2019-01-11T17:43:28.461Z,22.10
2019-01-11T17:45:58.625Z,22.43
2019-01-11T17:48:28.658Z,21.07
2019-01-11T17:50:59.114Z,20.77
2019-01-11T17:53:29.409Z,22.63
2019-01-11T17:55:59.605Z,23.53
2019-01-11T17:58:29.723Z,23.10
2019-01-11T18:00:59.737Z,23.77
2019-01-11T18:03:31.391Z,20.93
2019-01-11T18:06:01.337Z,18.50
2019-01-11T18:08:31.561Z,21.30
2019-01-11T18:11:01.577Z,19.20
2019-01-11T18:13:32.167Z,20.43
2019-01-11T18:16:03.474Z,18.00
2019-01-11T18:18:33.857Z,16.47
2019-01-11T18:21:04.022Z,18.53
2019-01-11T18:23:34.239Z,18.30
2019-01-11T18:26:04.338Z,18.87
2019-01-11T18:28:34.409Z,17.60
2019-01-11T18:31:04.417Z,19.57
2019-01-11T18:33:34.571Z,18.87
2019-01-11T18:36:04.850Z,18.20
2019-01-11T18:38:35.057Z,15.33
2019-01-11T18:41:05.370Z,16.73
2019-01-11T18:43:35.852Z,15.17
2019-01-11T18:46:06.296Z,14.80
2019-01-11T18:48:36.337Z,16.03
2019-01-11T18:51:06.536Z,16.50
2019-01-11T18:53:36.929Z,18.03
2019-01-11T18:56:07.077Z,17.07
2019-01-11T18:58:37.261Z,15.50
2019-01-11T19:01:07.478Z,18.77
2019-01-11T19:03:37.526Z,18.13
2019-01-11T19:06:07.729Z,17.57
2019-01-11T19:08:37.699Z,18.87
2019-01-11T19:11:07.938Z,19.57
2019-01-11T19:13:38.113Z,18.97
2019-01-11T19:16:08.530Z,18.30
2019-01-11T19:18:38.688Z,18.33
2019-01-11T19:21:11.007Z,19.67
2019-01-11T19:23:41.184Z,16.20
2019-01-11T19:26:11.598Z,18.43
2019-01-11T19:28:41.857Z,17.87
2019-01-11T19:31:12.305Z,17.50
2019-01-11T19:33:42.391Z,18.67
2019-01-11T19:36:12.799Z,19.07
2019-01-11T19:38:43.042Z,19.33
2019-01-11T19:41:13.129Z,20.00
2019-01-11T19:43:43.234Z,22.03
2019-01-11T19:46:13.356Z,21.27
2019-01-11T19:48:43.551Z,20.30
2019-01-11T19:51:13.768Z,20.70
2019-01-11T19:53:44.181Z,20.77
2019-01-11T19:56:15.884Z,21.57
2019-01-11T19:58:46.314Z,20.73
2019-01-11T20:01:16.635Z,20.00
2019-01-11T20:03:46.738Z,21.17
2019-01-11T20:06:16.858Z,21.33
2019-01-11T20:08:47.346Z,20.83
2019-01-11T20:11:17.754Z,21.43
2019-01-11T20:13:47.828Z,21.13
2019-01-11T20:16:17.972Z,22.40
2019-01-11T20:18:48.090Z,22.47
2019-01-11T20:21:18.190Z,22.10
2019-01-11T20:23:49.618Z,21.53
2019-01-11T20:26:19.861Z,20.23
2019-01-11T20:28:49.914Z,21.03
2019-01-11T20:31:22.962Z,20.33
2019-01-11T20:33:53.169Z,20.23
2019-01-11T20:36:23.208Z,20.47
2019-01-11T20:38:53.317Z,19.47
2019-01-11T20:41:23.552Z,17.87
2019-01-11T20:43:53.633Z,16.60
2019-01-11T20:46:23.681Z,15.63
2019-01-11T20:48:53.804Z,15.73
2019-01-11T20:51:26.835Z,15.03
2019-01-11T20:53:57.042Z,16.20
2019-01-11T20:56:27.327Z,16.73
2019-01-11T20:58:57.536Z,18.53
2019-01-11T21:01:27.596Z,17.93
2019-01-11T21:03:57.841Z,18.30
2019-01-11T21:06:28.106Z,17.87
2019-01-11T21:08:58.354Z,17.93
2019-01-11T21:11:28.577Z,19.23
2019-01-11T21:13:58.727Z,17.40
2019-01-11T21:16:28.973Z,19.40
2019-01-11T21:18:59.459Z,19.10
2019-01-11T21:21:29.601Z,20.33
2019-01-11T21:24:01.897Z,19.07
2019-01-11T21:26:31.980Z,18.63
2019-01-11T21:29:02.157Z,19.10
2019-01-11T21:31:32.253Z,18.27
2019-01-11T21:34:02.427Z,18.70
2019-01-11T21:36:32.434Z,17.77
2019-01-11T21:39:02.577Z,17.17
2019-01-11T21:41:32.616Z,17.03
2019-01-11T21:44:02.731Z,17.40
2019-01-11T21:46:32.666Z,14.67
2019-01-11T21:49:02.542Z,16.80
2019-01-11T21:51:32.326Z,18.00
2019-01-11T21:54:02.197Z,18.70
2019-01-11T21:56:32.059Z,18.63
2019-01-11T21:59:02.001Z,19.03
2019-01-11T22:01:32.889Z,19.37
2019-01-11T22:04:04.971Z,18.70
2019-01-11T22:06:34.982Z,14.90
2019-01-11T22:09:08.178Z,16.50
2019-01-11T22:11:37.972Z,18.13
2019-01-11T22:14:08.728Z,18.67
2019-01-11T22:16:38.689Z,17.73
2019-01-11T22:19:08.566Z,18.20
2019-01-11T22:21:38.233Z,17.90
2019-01-11T22:24:07.966Z,17.73
2019-01-11T22:26:37.633Z,19.50
2019-01-11T22:29:08.110Z,19.30
2019-01-11T22:31:38.214Z,17.60
2019-01-11T22:34:08.513Z,18.10
2019-01-11T22:36:38.202Z,18.97
2019-01-11T22:39:09.450Z,18.10
2019-01-11T22:41:39.297Z,17.90
2019-01-11T22:44:09.333Z,19.10
2019-01-11T22:46:38.965Z,18.10
2019-01-11T22:49:08.949Z,18.80
2019-01-11T22:51:38.617Z,18.20
2019-01-11T22:54:10.412Z,19.20
2019-01-11T22:56:39.863Z,18.77
2019-01-11T22:59:09.818Z,19.23
2019-01-11T23:01:59.947Z,18.63
2019-01-11T23:04:29.805Z,19.80
2019-01-11T23:07:17.177Z,17.97
2019-01-11T23:09:52.899Z,16.20
2019-01-11T23:12:45.921Z,15.70
2019-01-11T23:15:23.151Z,14.50
2019-01-11T23:18:02.567Z,15.43
2019-01-11T23:20:32.771Z,15.13
2019-01-11T23:23:02.719Z,15.10
2019-01-11T23:25:32.567Z,16.83
2019-01-11T23:28:03.029Z,15.00
2019-01-11T23:30:32.713Z,16.00
2019-01-11T23:33:02.493Z,14.50
2019-01-11T23:35:33.394Z,16.10
2019-01-11T23:38:03.118Z,15.33
2019-01-11T23:40:33.029Z,15.67
2019-01-11T23:43:02.714Z,15.20
2019-01-11T23:45:32.578Z,15.13
2019-01-11T23:48:02.649Z,13.23
2019-01-11T23:50:32.697Z,16.83
2019-01-11T23:53:02.567Z,15.17
2019-01-11T23:55:32.437Z,15.27
2019-01-11T23:58:02.127Z,14.33
